Latest Coastal Weather Observations for Cape Borda

IDS60701

Issued at 5:11 am CST Tuesday 26 May 2015 (issued every 10 minutes, with the page automatically refreshed every 10 minutes)

About coastal observations | Map of coastal stations | Coastal observations for SA | Marine services | Other Formats
Station Details ID: 022823 Name: CAPE BORDA Lat: -35.75 Lon: 136.60 Height: 158.0 m
Data from the previous 72 hours. | See also: Recent months at Cape Borda
Date/Time
CST
Temp

°C
Wind Pressure Rain
since 9am
mm
Weather Cloud Vis
km
Sea
Height
m
Swell
Dir
 
Speed
knots
Gust
knots
hPa Trend Height
m
Period
s
Dir
26/05:00am 13.8 NE 8 10 1024.2 - 0.0 - - - - - - -
26/04:30am 13.9 NE 9 11 1024.2 - 0.0 - - - - - - -
26/04:00am 13.9 NE 10 13 1024.4 - 0.0 - - - - - - -
26/03:30am 13.9 NE 9 12 1024.7 - 0.0 - - - - - - -
26/03:00am 13.9 NE 9 12 1024.9 - 0.0 - - - - - - -
26/02:30am 13.9 ENE 10 12 1025.0 - 0.0 - - - - - - -
26/02:00am 13.7 ENE 9 12 1025.2 - 0.0 - - - - - - -
26/01:30am 13.8 NE 9 11 1025.3 - 0.0 - - - - - - -
26/01:00am 13.8 NE 9 11 1025.4 - 0.0 - - - - - - -
26/12:30am 13.9 ENE 10 13 1025.6 - 0.0 - - - - - - -
26/12:00am 13.7 ENE 9 12 1025.7 - 0.0 - - - - - - -
 
Date/Time
CST
Temp

°C
Wind Pressure Rain
since 9am
mm
Weather Cloud Vis
km
Sea
Height
m
Swell
Dir
 
Speed
knots
Gust
knots
hPa Trend Height
m
Period
s
Dir
25/11:30pm 13.6 ENE 9 12 1026.0 - 0.0 - - - - - - -
25/11:00pm 13.4 ENE 9 11 1026.0 - 0.0 - - - - - - -
25/10:30pm 13.7 ENE 9 11 1026.3 - 0.0 - - - - - - -
25/10:00pm 13.9 ENE 9 12 1026.7 - 0.0 - - - - - - -
25/09:30pm 13.8 ENE 9 11 1026.6 - 0.0 - - - - - - -
25/09:00pm 13.3 E 8 10 1026.6 - 0.0 - - - - - - -
25/08:30pm 13.5 E 8 10 1026.6 - 0.0 - - - - - - -
25/08:00pm 13.0 E 8 10 1026.8 - 0.0 - - - - - - -
25/07:30pm 12.4 E 9 9 1026.4 - 0.0 - - - - - - -
25/07:00pm 12.9 ENE 9 11 1026.4 - 0.0 - - - - - - -
25/06:30pm 12.2 E 7 8 1026.4 - 0.0 - - - - - - -
25/06:00pm 12.4 E 7 8 1026.2 - 0.0 - - - - - - -
25/05:30pm 12.4 ESE 7 8 1026.1 - 0.0 - - - - - - -
25/05:00pm 13.5 E 7 7 1026.0 - 0.0 - - - - - - -
25/04:30pm 14.5 E 6 7 1025.8 - 0.0 - - - - - - -
25/04:00pm 15.2 E 5 7 1026.0 - 0.0 - - - - - - -
25/03:30pm 16.1 E 5 7 1025.9 - 0.0 - - - - - - -
25/03:00pm 16.5 NE 7 8 1025.6 S 0.0 Fine Partly cloudy 20 <0.1 1.8 8 SW
25/02:30pm 16.3 NE 9 11 1025.7 - 0.0 - - - - - - -
25/02:00pm 16.1 NE 10 12 1025.7 - 0.0 - - - - - - -
25/01:30pm 16.0 NE 11 13 1025.9 - 0.0 - - - - - - -
25/01:00pm 16.5 ENE 10 13 1026.2 - 0.0 - - - - - - -
25/12:30pm 16.0 ENE 12 16 1026.4 - 0.0 - - - - - - -
25/12:00pm 16.2 ENE 12 15 1026.7 - 0.0 - - - - - - -
25/11:30am 16.0 NE 10 15 1027.5 - 0.0 - - - - - - -
25/11:00am 15.5 NE 11 15 1027.9 - 0.0 - - - - - - -
25/10:30am 15.8 NE 9 12 1028.2 - 0.0 - - - - - - -
25/10:00am 15.7 ENE 7 11 1028.1 - 0.0 - - - - - - -
25/09:30am 14.4 ENE 8 10 1028.3 - 0.0 - - - - - - -
25/09:00am 13.6 ENE 7 8 1028.4 F 0.0 Fine Partly cloudy 25 <0.5 1.8 7 SW
25/08:30am 13.3 ENE 7 9 1028.3 - 0.0 - - - - - - -
25/08:00am 12.5 ENE 7 8 1028.2 - 0.0 - - - - - - -
25/07:30am 11.0 E 7 8 1028.1 - 0.0 - - - - - - -
25/07:00am 11.3 E 7 8 1027.7 - 0.0 - - - - - - -
25/06:30am 11.8 ENE 7 8 1027.7 - 0.0 - - - - - - -
25/06:00am 12.4 NE 7 9 1027.5 - 0.0 - - - - - - -
25/05:30am 12.5 NE 7 9 1027.2 - 0.0 - - - - - - -
25/05:00am 12.6 NE 7 8 1027.2 - 0.0 - - - - - - -
25/04:30am 12.7 NNE 7 9 1027.1 - 0.0 - - - - - - -
25/04:00am 12.8 NE 7 9 1027.1 - 0.0 - - - - - - -
25/03:30am 13.2 NE 7 9 1027.0 - 0.0 - - - - - - -
25/03:00am 13.3 ENE 8 9 1027.3 - 0.0 - - - - - - -
25/02:30am 13.2 ENE 7 10 1027.5 - 0.0 - - - - - - -
25/02:00am 13.2 NE 7 9 1027.6 - 0.0 - - - - - - -
25/01:30am 13.4 NE 9 11 1027.5 - 0.0 - - - - - - -
25/01:00am 13.5 NE 8 12 1027.6 - 0.0 - - - - - - -
25/12:30am 13.3 NE 7 9 1027.7 - 0.0 - - - - - - -
25/12:00am 13.1 ENE 8 11 1027.7 - 0.0 - - - - - - -
 
Date/Time
CST
Temp

°C
Wind Pressure Rain
since 9am
mm
Weather Cloud Vis
km
Sea
Height
m
Swell
Dir
 
Speed
knots
Gust
knots
hPa Trend Height
m
Period
s
Dir
24/11:30pm 13.2 NE 8 11 1027.7 - 0.0 - - - - - - -
24/11:00pm 13.2 NE 8 11 1027.9 - 0.0 - - - - - - -
24/10:30pm 13.5 NE 9 12 1027.9 - 0.0 - - - - - - -
24/10:00pm 13.7 NE 8 11 1027.9 - 0.0 - - - - - - -
24/09:30pm 13.9 NNE 7 10 1027.7 - 0.0 - - - - - - -
24/09:00pm 13.8 NE 7 10 1027.4 - 0.0 - - - - - - -
24/08:30pm 12.4 ESE 7 9 1027.1 - 0.0 - - - - - - -
24/08:00pm 13.2 NNE 6 7 1027.1 - 0.0 - - - - - - -
24/07:30pm 13.5 N 3 4 1027.1 - 0.0 - - - - - - -
24/07:00pm 14.0 N 8 10 1027.2 - 0.0 - - - - - - -
24/06:30pm 14.1 N 8 12 1027.2 - 0.0 - - - - - - -
24/06:00pm 14.1 N 10 14 1027.2 - 0.0 - - - - - - -
24/05:30pm 14.1 N 9 13 1026.7 - 0.0 - - - - - - -
24/05:00pm 14.1 N 7 11 1026.5 - 0.0 - - - - - - -
24/04:30pm 14.1 N 7 11 1026.4 - 0.0 - - - - - - -
24/04:00pm 14.1 N 7 11 1026.3 - 0.0 - - - - - - -
24/03:30pm 14.3 N 7 11 1026.3 - 0.0 - - - - - - -
24/03:00pm 14.4 N 8 12 1026.2 R 0.0 Distant precip. Mostly cloudy 15 1 2.1 6 SW
24/02:30pm 14.7 N 10 14 1026.2 - 0.0 - - - - - - -
24/02:00pm 14.7 N 9 14 1026.2 - 0.0 - - - - - - -
24/01:30pm 14.9 N 10 16 1026.5 - 0.0 - - - - - - -
24/01:00pm 14.9 N 9 14 1026.6 - 0.0 - - - - - - -
24/12:30pm 14.8 N 11 17 1027.0 - 0.0 - - - - - - -
24/12:00pm 14.6 N 13 17 1027.3 - 0.0 - - - - - - -
24/11:30am 14.9 N 11 18 1027.5 - 0.0 - - - - - - -
24/11:00am 15.3 N 11 17 1027.5 - 0.0 - - - - - - -
24/10:30am 14.6 N 12 17 1027.5 - 0.0 - - - - - - -
24/10:00am 14.5 N 12 15 1027.2 - 0.0 - - - - - - -
24/09:30am 13.9 NNE 11 14 1027.1 - 0.0 - - - - - - -
24/09:00am 13.8 NNE 10 14 1027.2 F 0.2 Haze Mostly cloudy 15 <0.5 2.9 8 SW
24/08:30am 13.5 NNE 10 15 1027.0 - 0.2 - - - - - - -
24/08:00am 13.7 N 10 15 1027.0 - 0.2 - - - - - - -
24/07:30am 13.6 N 9 13 1026.8 - 0.2 - - - - - - -
24/07:00am 13.6 N 11 14 1026.6 - 0.2 - - - - - - -
24/06:30am 13.3 N 10 15 1026.5 - 0.2 - - - - - - -
24/06:00am 12.9 NNE 7 12 1026.4 - 0.2 - - - - - - -
24/05:30am 13.1 NNE 9 13 1026.3 - 0.2 - - - - - - -
24/05:00am 13.0 NE 8 11 1026.1 - 0.2 - - - - - - -
24/04:30am 12.8 NNE 8 11 1026.1 - 0.2 - - - - - - -
24/04:00am 12.7 NE 9 13 1025.8 - 0.2 - - - - - - -
24/03:30am 12.3 ENE 9 13 1026.0 - 0.2 - - - - - - -
24/03:00am 12.0 ENE 9 13 1026.1 - 0.2 - - - - - - -
24/02:30am 11.9 ENE 9 13 1026.3 - 0.2 - - - - - - -
24/02:00am 11.6 ENE 9 12 1026.4 - 0.2 - - - - - - -
24/01:30am 11.3 ENE 9 12 1026.6 - 0.2 - - - - - - -
24/01:00am 10.3 E 8 10 1026.7 - 0.2 - - - - - - -
24/12:30am 10.4 E 9 11 1027.1 - 0.2 - - - - - - -
24/12:00am 10.3 E 8 12 1027.4 - 0.2 - - - - - - -
 
Date/Time
CST
Temp

°C
Wind Pressure Rain
since 9am
mm
Weather Cloud Vis
km
Sea
Height
m
Swell
Dir
 
Speed
knots
Gust
knots
hPa Trend Height
m
Period
s
Dir
23/11:30pm 10.2 E 9 11 1027.3 - 0.2 - - - - - - -
23/11:00pm 10.3 ENE 9 11 1027.6 - 0.2 - - - - - - -
23/10:30pm 9.9 E 9 12 1027.9 - 0.2 - - - - - - -
23/10:00pm 9.9 E 9 11 1028.0 - 0.2 - - - - - - -
23/09:30pm 9.7 ENE 9 11 1028.2 - 0.2 - - - - - - -
23/09:00pm 8.7 E 8 10 1028.2 - 0.2 - - - - - - -
23/08:30pm 8.0 E 7 9 1028.4 - 0.2 - - - - - - -
23/08:00pm 8.3 ESE 7 8 1028.3 - 0.2 - - - - - - -
23/07:30pm 9.1 ESE 7 8 1028.5 - 0.2 - - - - - - -
23/07:00pm 9.1 ESE 6 7 1028.4 - 0.2 - - - - - - -
23/06:30pm 9.5 ESE 6 7 1028.1 - 0.2 - - - - - - -
23/06:00pm 10.6 E 6 8 1027.9 - 0.2 - - - - - - -
23/05:30pm 11.3 ENE 6 9 1027.9 - 0.2 - - - - - - -
23/05:00pm 11.5 ENE 8 11 1027.8 - 0.2 - - - - - - -
23/04:30pm 12.0 ENE 9 13 1028.2 - 0.2 - - - - - - -
23/04:00pm 12.3 ENE 7 11 1028.3 - 0.2 - - - - - - -
23/03:30pm 12.9 ENE 8 11 1028.5 - 0.2 - - - - - - -
23/03:00pm 13.0 ENE 8 10 1028.6 F 0.2 Fine Partly cloudy 18 <0.5 3.5 9 SW
23/02:30pm 13.4 NE 10 14 1028.7 - 0.2 - - - - - - -
23/02:00pm 13.2 NE 9 14 1028.9 - 0.2 - - - - - - -
23/01:30pm 13.8 NE 11 16 1029.1 - 0.2 - - - - - - -
23/01:00pm 12.7 NE 11 16 1029.3 - 0.2 - - - - - - -
23/12:30pm 12.4 ENE 11 14 1029.7 - 0.2 - - - - - - -
23/12:00pm 13.3 ENE 12 17 1029.9 - 0.2 - - - - - - -
23/11:30am 13.2 ENE 11 17 1030.3 - 0.2 - - - - - - -
23/11:00am 12.6 ENE 11 17 1030.8 - 0.0 - - - - - - -
23/10:30am 12.4 ENE 11 15 1030.9 - 0.0 - - - - - - -
23/10:00am 12.7 ENE 10 15 1031.0 - 0.0 - - - - - - -
23/09:30am 11.6 ENE 11 14 1031.2 - 0.0 - - - - - - -
23/09:00am 10.9 ESE 8 11 1031.3 F 3.4 Haze Partly cloudy 18 <0.5 3.9 9 SW
23/08:30am 9.7 ESE 8 11 1031.2 - 3.4 - - - - - - -
23/08:00am 9.0 ESE 8 11 1031.3 - 3.4 - - - - - - -
23/07:30am 8.7 ESE 8 10 1031.2 - 3.4 - - - - - - -
23/07:00am 8.3 SE 8 9 1031.0 - 3.4 - - - - - - -
23/06:30am 8.2 SE 8 9 1030.7 - 3.4 - - - - - - -
23/06:00am 8.1 ESE 7 9 1030.5 - 3.4 - - - - - - -
23/05:30am 8.2 ESE 8 10 1030.5 - 3.4 - - - - - - -

Other Formats:

Comma delimited format used in spreadsheet applications
http://www.bom.gov.au/fwo/IDS60701/IDS60701.95805.axf

JavaScript Object Notation format (JSON) in row-major order
http://www.bom.gov.au/fwo/IDS60701/IDS60701.95805.json